createdAt,value
2022-12-05T00:00:08.973Z,101048.28
2022-12-05T00:02:54.203Z,101047.13
2022-12-05T00:05:42.420Z,101042.41
2022-12-05T00:08:27.314Z,101040.19
2022-12-05T00:11:14.927Z,101040.72
2022-12-05T00:14:01.799Z,101044.19
2022-12-05T00:16:47.138Z,101047.75
2022-12-05T00:19:32.169Z,101045.69
2022-12-05T00:22:17.286Z,101041.56
2022-12-05T00:25:03.298Z,101043.16
2022-12-05T00:27:48.226Z,101042.84
2022-12-05T00:30:33.517Z,101043.47
2022-12-05T00:33:18.770Z,101048.69
2022-12-05T00:36:10.397Z,101043.66
2022-12-05T00:38:56.306Z,101047.13
2022-12-05T00:41:41.922Z,101049.88
2022-12-05T00:44:26.996Z,101044.19
2022-12-05T00:47:12.078Z,101056.66
2022-12-05T00:49:57.317Z,101054.13
2022-12-05T00:52:42.118Z,101053.31
2022-12-05T00:55:27.242Z,101056.34
2022-12-05T00:58:12.191Z,101052.44
2022-12-05T01:00:57.348Z,101041.78
2022-12-05T01:03:43.723Z,101051.69
2022-12-05T01:06:29.336Z,101051.91
2022-12-05T01:09:17.223Z,101056.41
2022-12-05T01:12:02.299Z,101053.66
2022-12-05T01:14:47.136Z,101055.56
2022-12-05T01:17:32.315Z,101051.13
2022-12-05T01:20:17.411Z,101049.25
2022-12-05T01:23:02.359Z,101056.38
2022-12-05T01:25:50.185Z,101057.94
2022-12-05T01:28:36.077Z,101072.78
2022-12-05T01:31:27.315Z,101064.09
2022-12-05T01:34:15.468Z,101061.69
2022-12-05T01:37:00.471Z,101073.19
2022-12-05T01:39:45.541Z,101074.31
2022-12-05T01:42:30.694Z,101079.34
2022-12-05T01:45:20.880Z,101078.09
2022-12-05T01:48:11.262Z,101081.28
2022-12-05T01:50:59.026Z,101083.63
2022-12-05T01:53:44.534Z,101081.66
2022-12-05T01:56:32.693Z,101086.97
2022-12-05T01:59:20.401Z,101086.25
2022-12-05T02:02:07.245Z,101087.66
2022-12-05T02:05:02.219Z,101085.59
2022-12-05T02:07:47.876Z,101090.00
2022-12-05T02:10:40.455Z,101090.00
2022-12-05T02:13:46.934Z,101084.63
2022-12-05T02:16:51.386Z,101087.44
2022-12-05T02:20:04.071Z,101085.25
2022-12-05T02:23:16.723Z,101085.38
2022-12-05T02:26:26.253Z,101085.56
2022-12-05T02:29:39.345Z,101083.09
2022-12-05T02:32:38.095Z,101078.53
2022-12-05T02:35:44.490Z,101078.34
2022-12-05T02:38:50.605Z,101082.91
2022-12-05T02:41:44.778Z,101085.06
2022-12-05T02:44:37.997Z,101086.28
2022-12-05T02:47:27.388Z,101083.56
2022-12-05T02:50:17.429Z,101089.34
2022-12-05T02:53:09.038Z,101087.78
2022-12-05T02:55:55.017Z,101082.25
2022-12-05T02:58:45.438Z,101088.88
2022-12-05T03:01:32.387Z,101086.81
2022-12-05T03:04:20.646Z,101090.09
2022-12-05T03:07:11.892Z,101090.22
2022-12-05T03:10:04.246Z,101083.41
2022-12-05T03:12:54.541Z,101084.69
2022-12-05T03:15:43.929Z,101093.09
2022-12-05T03:18:44.686Z,101097.00
2022-12-05T03:21:29.652Z,101100.84
2022-12-05T03:24:16.079Z,101099.53
2022-12-05T03:27:23.922Z,101100.44
2022-12-05T03:30:12.893Z,101100.94
2022-12-05T03:33:11.254Z,101110.53
2022-12-05T03:36:08.032Z,101100.19
2022-12-05T03:39:02.217Z,101102.81
2022-12-05T03:42:21.329Z,101103.81
2022-12-05T03:45:17.788Z,101109.13
2022-12-05T03:48:30.949Z,101118.91
2022-12-05T03:51:20.490Z,101114.34
2022-12-05T03:54:22.864Z,101112.56
2022-12-05T03:57:23.091Z,101117.81
2022-12-05T04:00:12.501Z,101111.47
2022-12-05T04:03:05.765Z,101126.84
2022-12-05T04:05:58.965Z,101124.41
2022-12-05T04:09:23.513Z,101125.59
2022-12-05T04:12:17.068Z,101120.38
2022-12-05T04:15:08.140Z,101129.34
2022-12-05T04:17:58.143Z,101128.59
2022-12-05T04:21:01.498Z,101135.50
2022-12-05T04:24:06.498Z,101130.19
2022-12-05T04:27:17.915Z,101132.78
2022-12-05T04:30:10.325Z,101129.63
2022-12-05T04:33:04.955Z,101128.59
2022-12-05T04:35:54.996Z,101134.66
2022-12-05T04:39:02.346Z,101133.75
2022-12-05T04:41:51.856Z,101145.19
2022-12-05T04:44:42.385Z,101143.78
2022-12-05T04:47:32.528Z,101143.41
2022-12-05T04:50:18.808Z,101141.75
2022-12-05T04:53:05.433Z,101141.91
2022-12-05T04:55:54.150Z,101137.56
2022-12-05T04:58:38.995Z,101131.47
2022-12-05T05:01:48.407Z,101128.69
2022-12-05T05:04:40.743Z,101142.38
2022-12-05T05:07:25.860Z,101139.50
2022-12-05T05:10:15.136Z,101141.91
2022-12-05T05:13:00.240Z,101142.22
2022-12-05T05:15:45.482Z,101144.81
2022-12-05T05:18:30.606Z,101138.97
2022-12-05T05:21:23.523Z,101145.94
2022-12-05T05:24:10.437Z,101146.13
2022-12-05T05:26:57.465Z,101143.63
2022-12-05T05:29:42.754Z,101147.88
2022-12-05T05:32:27.709Z,101153.03
2022-12-05T05:35:13.751Z,101159.28
2022-12-05T05:37:58.553Z,101156.34
2022-12-05T05:40:43.727Z,101158.44
2022-12-05T05:43:28.839Z,101161.25
2022-12-05T05:46:15.384Z,101156.09
2022-12-05T05:49:00.858Z,101162.00
2022-12-05T05:51:46.126Z,101158.25
2022-12-05T05:54:31.211Z,101155.47
2022-12-05T05:57:20.255Z,101154.94
2022-12-05T06:00:07.331Z,101160.69
2022-12-05T06:02:52.333Z,101163.84
2022-12-05T06:05:37.576Z,101165.06
2022-12-05T06:08:22.649Z,101164.41
2022-12-05T06:11:10.073Z,101171.97
2022-12-05T06:13:56.816Z,101169.91
2022-12-05T06:16:41.934Z,101174.50
2022-12-05T06:19:27.145Z,101175.59
2022-12-05T06:22:12.582Z,101170.66
2022-12-05T06:24:58.367Z,101180.72
2022-12-05T06:27:43.334Z,101180.72
2022-12-05T06:30:28.433Z,101183.34
2022-12-05T06:33:13.949Z,101177.84
2022-12-05T06:36:04.220Z,101182.72
2022-12-05T06:38:49.336Z,101183.09
2022-12-05T06:41:35.041Z,101185.50
2022-12-05T06:44:21.790Z,101186.38
2022-12-05T06:47:06.754Z,101184.94
2022-12-05T06:49:51.902Z,101189.41
2022-12-05T06:52:37.336Z,101187.63
2022-12-05T06:55:22.467Z,101190.34
2022-12-05T06:58:07.601Z,101191.53
2022-12-05T07:01:11.806Z,101191.44
2022-12-05T07:03:57.502Z,101194.13
2022-12-05T07:06:49.953Z,101203.09
2022-12-05T07:09:51.186Z,101211.31
2022-12-05T07:12:36.387Z,101208.31
2022-12-05T07:15:21.579Z,101206.81
2022-12-05T07:18:07.141Z,101211.22
2022-12-05T07:21:11.857Z,101217.44
2022-12-05T07:23:57.417Z,101213.84
2022-12-05T07:26:42.360Z,101225.41
2022-12-05T07:29:27.470Z,101225.41
2022-12-05T07:32:12.528Z,101224.56
2022-12-05T07:34:57.517Z,101225.16
2022-12-05T07:37:42.680Z,101227.56
2022-12-05T07:40:27.966Z,101235.91
2022-12-05T07:43:12.854Z,101233.19
2022-12-05T07:46:02.497Z,101237.88
2022-12-05T07:48:48.266Z,101234.78
2022-12-05T07:51:33.588Z,101232.44
2022-12-05T07:54:18.690Z,101239.94
2022-12-05T07:57:03.825Z,101239.16
2022-12-05T07:59:48.903Z,101238.06
2022-12-05T08:02:36.591Z,101239.06
2022-12-05T08:05:25.371Z,101241.00
2022-12-05T08:08:10.593Z,101249.81
2022-12-05T08:10:55.445Z,101254.06
2022-12-05T08:13:40.689Z,101254.56
2022-12-05T08:16:28.168Z,101253.38
2022-12-05T08:19:13.716Z,101261.75
2022-12-05T08:21:58.881Z,101260.44
2022-12-05T08:24:43.872Z,101259.34
2022-12-05T08:27:29.047Z,101257.47
2022-12-05T08:30:14.016Z,101260.63
2022-12-05T08:32:59.156Z,101267.44
2022-12-05T08:35:44.337Z,101272.09
2022-12-05T08:38:29.368Z,101267.25
2022-12-05T08:41:16.889Z,101281.00
2022-12-05T08:44:05.349Z,101282.94
2022-12-05T08:46:50.556Z,101280.25
2022-12-05T08:49:35.459Z,101277.56
2022-12-05T08:52:21.799Z,101280.16
2022-12-05T08:55:07.289Z,101274.19
2022-12-05T08:57:52.149Z,101281.19
2022-12-05T09:00:38.365Z,101284.75
2022-12-05T09:03:23.358Z,101286.03
2022-12-05T09:06:10.185Z,101287.28
2022-12-05T09:09:00.009Z,101286.50
2022-12-05T09:11:50.659Z,101289.44
2022-12-05T09:14:35.601Z,101282.50
2022-12-05T09:17:20.464Z,101287.09
2022-12-05T09:20:06.686Z,101293.25
2022-12-05T09:22:52.394Z,101301.91
2022-12-05T09:25:37.146Z,101296.38
2022-12-05T09:28:22.049Z,101303.19
2022-12-05T09:31:10.324Z,101302.00
2022-12-05T09:33:55.319Z,101309.03
2022-12-05T09:36:40.569Z,101309.31
2022-12-05T09:39:25.745Z,101314.91
2022-12-05T09:42:17.960Z,101312.97
2022-12-05T09:45:17.225Z,101309.94
2022-12-05T09:48:11.256Z,101308.84
2022-12-05T09:51:02.782Z,101314.44
2022-12-05T09:53:48.122Z,101308.66
2022-12-05T09:56:32.959Z,101308.00
2022-12-05T09:59:20.460Z,101311.94
2022-12-05T10:02:30.216Z,101312.13
2022-12-05T10:05:24.905Z,101316.41
2022-12-05T10:08:29.097Z,101311.28
2022-12-05T10:11:20.229Z,101307.59
2022-12-05T10:14:06.354Z,101315.81
2022-12-05T10:17:04.766Z,101318.56
2022-12-05T10:19:53.756Z,101318.38
2022-12-05T10:22:46.139Z,101314.81
2022-12-05T10:25:33.259Z,101315.28
2022-12-05T10:28:29.977Z,101304.28
2022-12-05T10:31:19.202Z,101311.53
2022-12-05T10:34:14.930Z,101312.19
2022-12-05T10:37:11.325Z,101316.88
2022-12-05T10:39:58.105Z,101313.03
2022-12-05T10:42:44.120Z,101312.28
2022-12-05T10:45:29.320Z,101308.34
2022-12-05T10:48:17.263Z,101313.47
2022-12-05T10:51:02.355Z,101320.50
2022-12-05T10:53:51.086Z,101316.31
2022-12-05T10:56:48.071Z,101313.97
2022-12-05T10:59:46.427Z,101311.53
2022-12-05T11:02:33.430Z,101317.91
2022-12-05T11:05:28.424Z,101318.63
2022-12-05T11:08:35.606Z,101313.88
2022-12-05T11:11:29.899Z,101323.88
2022-12-05T11:14:24.219Z,101318.38
2022-12-05T11:17:24.237Z,101313.97
2022-12-05T11:20:34.277Z,101316.38
2022-12-05T11:23:29.247Z,101318.16
2022-12-05T11:26:35.547Z,101318.06
2022-12-05T11:29:38.860Z,101311.34
2022-12-05T11:32:27.963Z,101320.69
2022-12-05T11:35:13.067Z,101313.75
2022-12-05T11:38:03.212Z,101315.16
2022-12-05T11:41:06.719Z,101308.84
2022-12-05T11:44:22.384Z,101307.69
2022-12-05T11:47:16.358Z,101304.41
2022-12-05T11:50:18.801Z,101308.53
2022-12-05T11:53:27.797Z,101306.94
2022-12-05T11:56:33.830Z,101302.75
2022-12-05T12:00:02.771Z,101303.31
2022-12-05T12:03:15.668Z,101290.28
2022-12-05T12:06:25.074Z,101295.44
2022-12-05T12:09:47.133Z,101287.78
2022-12-05T12:12:55.074Z,101280.97
2022-12-05T12:16:13.898Z,101279.19
2022-12-05T12:19:18.886Z,101290.69
2022-12-05T12:22:21.219Z,101283.97
2022-12-05T12:25:33.429Z,101282.34
2022-12-05T12:28:36.337Z,101289.34
2022-12-05T12:31:30.392Z,101290.59
2022-12-05T12:34:51.221Z,101293.38
2022-12-05T12:37:48.391Z,101284.53
2022-12-05T12:40:56.301Z,101283.97
2022-12-05T12:43:55.144Z,101288.38
2022-12-05T12:46:48.489Z,101283.59
2022-12-05T12:49:41.956Z,101290.19
2022-12-05T12:52:39.489Z,101289.63
2022-12-05T12:55:36.414Z,101283.59
2022-12-05T12:58:29.199Z,101278.06
2022-12-05T13:01:24.344Z,101272.78
2022-12-05T13:04:14.729Z,101272.94
2022-12-05T13:07:06.413Z,101268.91
2022-12-05T13:10:02.214Z,101278.34
2022-12-05T13:12:48.686Z,101284.31
2022-12-05T13:15:40.775Z,101276.69
2022-12-05T13:18:26.655Z,101280.97
2022-12-05T13:21:11.798Z,101276.13
2022-12-05T13:24:03.136Z,101278.47
2022-12-05T13:26:49.938Z,101276.91
2022-12-05T13:29:40.373Z,101281.13
2022-12-05T13:32:32.891Z,101279.81
2022-12-05T13:35:45.322Z,101287.53
2022-12-05T13:38:52.707Z,101293.97
2022-12-05T13:41:59.318Z,101295.09
2022-12-05T13:44:44.250Z,101294.78
2022-12-05T13:47:50.528Z,101303.25
2022-12-05T13:50:44.006Z,101309.00
2022-12-05T13:53:37.354Z,101312.16
2022-12-05T13:56:45.504Z,101308.06
2022-12-05T14:00:00.360Z,101307.06
2022-12-05T14:02:45.970Z,101309.03
2022-12-05T14:05:43.124Z,101305.13
2022-12-05T14:08:31.325Z,101308.09
2022-12-05T14:11:16.682Z,101309.03
2022-12-05T14:14:05.024Z,101314.91
2022-12-05T14:16:52.283Z,101325.94
2022-12-05T14:19:53.253Z,101309.41
2022-12-05T14:23:22.658Z,101320.03
2022-12-05T14:26:32.546Z,101314.06
2022-12-05T14:29:41.882Z,101315.94
2022-12-05T14:32:33.667Z,101315.66
2022-12-05T14:35:26.051Z,101317.81
2022-12-05T14:38:27.403Z,101321.38
2022-12-05T14:41:16.069Z,101318.56
2022-12-05T14:44:08.474Z,101313.13
2022-12-05T14:46:54.296Z,101316.31
2022-12-05T14:49:51.645Z,101317.16
2022-12-05T14:52:38.581Z,101313.41
2022-12-05T14:55:27.088Z,101315.94
2022-12-05T14:58:19.266Z,101322.56
2022-12-05T15:01:14.726Z,101322.94
2022-12-05T15:04:37.892Z,101328.91
2022-12-05T15:07:35.392Z,101330.69
2022-12-05T15:10:32.970Z,101329.50
2022-12-05T15:13:25.013Z,101339.66
2022-12-05T15:16:17.943Z,101333.19
2022-12-05T15:19:07.370Z,101337.03
2022-12-05T15:21:56.581Z,101339.16
2022-12-05T15:24:41.881Z,101340.69
2022-12-05T15:27:26.783Z,101340.97
2022-12-05T15:30:16.813Z,101348.53
2022-12-05T15:33:02.715Z,101352.53
2022-12-05T15:35:50.621Z,101350.16
2022-12-05T15:38:36.406Z,101350.28
2022-12-05T15:41:21.776Z,101344.31
2022-12-05T15:44:06.779Z,101354.97
2022-12-05T15:46:53.446Z,101353.91
2022-12-05T15:49:38.785Z,101358.13
2022-12-05T15:52:27.151Z,101358.22
2022-12-05T15:55:18.711Z,101358.00
2022-12-05T15:58:33.428Z,101360.28
2022-12-05T16:01:22.612Z,101364.25
2022-12-05T16:04:20.433Z,101365.91
2022-12-05T16:07:11.065Z,101366.47
2022-12-05T16:10:00.454Z,101370.34
2022-12-05T16:12:48.111Z,101371.91
2022-12-05T16:15:33.805Z,101375.72
2022-12-05T16:18:28.147Z,101380.22
2022-12-05T16:21:38.490Z,101386.88
2022-12-05T16:24:29.880Z,101389.09
2022-12-05T16:27:17.861Z,101389.25
2022-12-05T16:30:11.958Z,101391.75
2022-12-05T16:33:03.919Z,101395.22
2022-12-05T16:35:50.330Z,101406.75
2022-12-05T16:38:36.346Z,101409.38
2022-12-05T16:41:25.195Z,101407.53
2022-12-05T16:44:28.421Z,101409.88
2022-12-05T16:47:24.203Z,101411.75
2022-12-05T16:50:28.547Z,101415.97
2022-12-05T16:53:19.266Z,101407.44
2022-12-05T16:56:06.905Z,101413.22
2022-12-05T16:58:52.499Z,101408.53
2022-12-05T17:01:39.330Z,101404.94
2022-12-05T17:04:24.970Z,101407.53
2022-12-05T17:07:10.158Z,101411.81
2022-12-05T17:09:55.755Z,101417.47
2022-12-05T17:12:47.505Z,101414.88
2022-12-05T17:15:33.045Z,101411.28
2022-12-05T17:18:20.793Z,101420.38
2022-12-05T17:21:06.231Z,101421.38
2022-12-05T17:23:51.754Z,101413.56
2022-12-05T17:26:36.851Z,101411.09
2022-12-05T17:29:21.760Z,101419.97
2022-12-05T17:32:06.919Z,101422.06
2022-12-05T17:34:51.962Z,101418.44
2022-12-05T17:37:37.139Z,101418.19
2022-12-05T17:40:22.382Z,101420.91
2022-12-05T17:43:12.450Z,101417.28
2022-12-05T17:46:00.071Z,101423.59
2022-12-05T17:48:46.756Z,101429.06
2022-12-05T17:51:31.751Z,101428.03
2022-12-05T17:54:16.823Z,101430.25
2022-12-05T17:57:01.982Z,101436.66
2022-12-05T17:59:47.269Z,101441.09
2022-12-05T18:02:32.372Z,101425.88
2022-12-05T18:05:17.567Z,101425.63
2022-12-05T18:08:02.489Z,101428.16
2022-12-05T18:10:49.104Z,101421.13
2022-12-05T18:13:34.396Z,101425.34
2022-12-05T18:16:19.226Z,101419.88
2022-12-05T18:19:04.425Z,101426.31
2022-12-05T18:21:49.410Z,101432.59
2022-12-05T18:24:34.512Z,101425.63
2022-12-05T18:27:20.750Z,101431.91
2022-12-05T18:30:07.061Z,101438.94
2022-12-05T18:32:51.875Z,101441.13
2022-12-05T18:35:40.553Z,101437.06
2022-12-05T18:38:25.654Z,101445.34
2022-12-05T18:41:10.813Z,101444.47
2022-12-05T18:43:56.017Z,101448.19
2022-12-05T18:46:41.190Z,101450.53
2022-12-05T18:49:26.135Z,101458.38
2022-12-05T18:52:11.013Z,101464.63
2022-12-05T18:55:15.850Z,101464.44
2022-12-05T18:58:00.899Z,101472.69
2022-12-05T19:00:45.804Z,101467.75
2022-12-05T19:03:32.330Z,101460.66
2022-12-05T19:06:19.746Z,101470.09
2022-12-05T19:09:07.779Z,101463.28
2022-12-05T19:11:54.994Z,101466.97
2022-12-05T19:14:40.067Z,101466.97
2022-12-05T19:17:25.154Z,101463.19
2022-12-05T19:20:11.575Z,101462.16
2022-12-05T19:23:00.733Z,101459.72
2022-12-05T19:25:46.077Z,101462.53
2022-12-05T19:28:36.158Z,101466.22
2022-12-05T19:31:23.519Z,101459.66
2022-12-05T19:34:09.230Z,101462.09
2022-12-05T19:36:54.912Z,101464.28
2022-12-05T19:39:39.778Z,101471.69
2022-12-05T19:42:24.631Z,101467.06
2022-12-05T19:45:14.867Z,101475.53
2022-12-05T19:48:02.918Z,101473.72
2022-12-05T19:50:55.617Z,101476.66
2022-12-05T19:53:42.243Z,101470.69
2022-12-05T19:56:29.246Z,101477.16
2022-12-05T19:59:16.641Z,101482.72
2022-12-05T20:02:01.896Z,101488.88
2022-12-05T20:04:47.780Z,101481.47
2022-12-05T20:07:32.633Z,101482.47
2022-12-05T20:10:17.612Z,101479.69
2022-12-05T20:13:05.567Z,101475.13
2022-12-05T20:16:02.543Z,101463.00
2022-12-05T20:18:49.271Z,101468.41
2022-12-05T20:21:35.620Z,101474.63
2022-12-05T20:24:20.450Z,101474.22
2022-12-05T20:27:07.162Z,101469.16
2022-12-05T20:29:52.355Z,101469.91
2022-12-05T20:32:37.387Z,101465.63
2022-12-05T20:35:24.189Z,101470.00
2022-12-05T20:38:09.762Z,101467.91
2022-12-05T20:41:02.214Z,101474.38
2022-12-05T20:43:53.674Z,101464.84
2022-12-05T20:46:38.499Z,101470.69
2022-12-05T20:49:23.585Z,101471.59
2022-12-05T20:52:08.841Z,101473.03
2022-12-05T20:54:54.158Z,101468.13
2022-12-05T20:57:40.499Z,101477.78
2022-12-05T21:00:25.754Z,101473.88
2022-12-05T21:03:16.944Z,101476.16
2022-12-05T21:06:17.630Z,101471.28
2022-12-05T21:09:04.981Z,101465.88
2022-12-05T21:11:50.099Z,101464.50
2022-12-05T21:14:35.360Z,101469.41
2022-12-05T21:17:20.133Z,101473.78
2022-12-05T21:20:07.611Z,101463.53
2022-12-05T21:22:52.987Z,101467.81
2022-12-05T21:25:38.205Z,101460.41
2022-12-05T21:28:23.403Z,101465.19
2022-12-05T21:31:14.205Z,101462.00
2022-12-05T21:34:02.069Z,101459.47
2022-12-05T21:36:47.718Z,101455.28
2022-12-05T21:39:32.622Z,101448.09
2022-12-05T21:42:17.654Z,101456.69
2022-12-05T21:45:02.910Z,101458.53
2022-12-05T21:47:48.053Z,101462.09
2022-12-05T21:50:33.351Z,101457.94
2022-12-05T21:53:19.083Z,101460.66
2022-12-05T21:56:14.536Z,101457.03
2022-12-05T21:58:59.527Z,101458.34
2022-12-05T22:01:46.300Z,101457.84
2022-12-05T22:04:31.530Z,101464.59
2022-12-05T22:07:16.597Z,101462.34
2022-12-05T22:10:02.012Z,101456.53
2022-12-05T22:12:47.564Z,101469.41
2022-12-05T22:15:32.473Z,101464.13
2022-12-05T22:18:18.953Z,101463.94
2022-12-05T22:21:16.156Z,101464.03
2022-12-05T22:24:01.121Z,101468.16
2022-12-05T22:26:46.221Z,101474.13
2022-12-05T22:29:30.982Z,101471.78
2022-12-05T22:32:15.717Z,101470.66
2022-12-05T22:35:03.662Z,101467.81
2022-12-05T22:37:49.004Z,101465.19
2022-12-05T22:40:36.438Z,101461.91
2022-12-05T22:43:22.745Z,101458.19
2022-12-05T22:46:10.393Z,101459.22
2022-12-05T22:48:56.349Z,101456.16
2022-12-05T22:51:41.574Z,101446.91
2022-12-05T22:54:30.212Z,101454.09
2022-12-05T22:57:15.501Z,101451.09
2022-12-05T23:00:00.932Z,101452.88
2022-12-05T23:02:46.262Z,101451.03
2022-12-05T23:05:31.444Z,101448.84
2022-12-05T23:08:16.595Z,101446.97
2022-12-05T23:11:03.709Z,101447.06
2022-12-05T23:13:49.831Z,101439.91
2022-12-05T23:16:35.182Z,101445.22
2022-12-05T23:19:20.206Z,101441.25
2022-12-05T23:22:05.368Z,101439.22
2022-12-05T23:24:50.564Z,101441.44
2022-12-05T23:27:35.986Z,101435.19
2022-12-05T23:30:21.047Z,101434.19
2022-12-05T23:33:06.261Z,101429.56
2022-12-05T23:35:53.883Z,101425.59
2022-12-05T23:38:40.936Z,101429.47
2022-12-05T23:41:26.292Z,101427.78
2022-12-05T23:44:10.935Z,101434.06
2022-12-05T23:46:56.354Z,101433.00
2022-12-05T23:49:41.315Z,101432.88
2022-12-05T23:52:26.465Z,101426.16
2022-12-05T23:55:11.774Z,101422.84
2022-12-05T23:57:57.190Z,101423.69
